sensor_id;sensor_type;location;lat;lon;timestamp;temperature;humidity
9271;DHT22;4673;53.458;9.940;2022-07-09T00:00:06;14.70;85.60
9271;DHT22;4673;53.458;9.940;2022-07-09T00:02:31;14.70;85.60
9271;DHT22;4673;53.458;9.940;2022-07-09T00:04:57;14.70;85.70
9271;DHT22;4673;53.458;9.940;2022-07-09T00:07:23;14.60;85.80
9271;DHT22;4673;53.458;9.940;2022-07-09T00:09:48;14.70;85.90
9271;DHT22;4673;53.458;9.940;2022-07-09T00:12:14;14.70;86.00
9271;DHT22;4673;53.458;9.940;2022-07-09T00:14:40;14.60;86.00
9271;DHT22;4673;53.458;9.940;2022-07-09T00:17:06;14.50;86.30
9271;DHT22;4673;53.458;9.940;2022-07-09T00:19:31;14.50;86.70
9271;DHT22;4673;53.458;9.940;2022-07-09T00:21:57;14.40;86.80
9271;DHT22;4673;53.458;9.940;2022-07-09T00:24:23;14.30;87.20
9271;DHT22;4673;53.458;9.940;2022-07-09T00:26:48;14.30;87.50
9271;DHT22;4673;53.458;9.940;2022-07-09T00:29:14;14.20;87.70
9271;DHT22;4673;53.458;9.940;2022-07-09T00:31:39;14.20;87.90
9271;DHT22;4673;53.458;9.940;2022-07-09T00:34:05;14.20;88.10
9271;DHT22;4673;53.458;9.940;2022-07-09T00:36:31;14.10;88.30
9271;DHT22;4673;53.458;9.940;2022-07-09T00:38:57;14.00;88.40
9271;DHT22;4673;53.458;9.940;2022-07-09T00:41:22;14.00;88.80
9271;DHT22;4673;53.458;9.940;2022-07-09T00:43:50;13.90;89.10
9271;DHT22;4673;53.458;9.940;2022-07-09T00:46:16;13.80;89.40
9271;DHT22;4673;53.458;9.940;2022-07-09T00:48:42;13.80;89.50
9271;DHT22;4673;53.458;9.940;2022-07-09T00:51:09;13.80;89.80
9271;DHT22;4673;53.458;9.940;2022-07-09T00:53:36;13.70;90.00
9271;DHT22;4673;53.458;9.940;2022-07-09T00:56:03;13.70;90.40
9271;DHT22;4673;53.458;9.940;2022-07-09T00:58:29;13.60;90.60
9271;DHT22;4673;53.458;9.940;2022-07-09T01:00:56;13.50;90.90
9271;DHT22;4673;53.458;9.940;2022-07-09T01:03:22;13.40;91.10
9271;DHT22;4673;53.458;9.940;2022-07-09T01:05:48;13.40;91.50
9271;DHT22;4673;53.458;9.940;2022-07-09T01:08:14;13.40;91.70
9271;DHT22;4673;53.458;9.940;2022-07-09T01:10:40;13.30;92.10
9271;DHT22;4673;53.458;9.940;2022-07-09T01:13:07;13.30;92.50
9271;DHT22;4673;53.458;9.940;2022-07-09T01:15:33;13.30;93.00
9271;DHT22;4673;53.458;9.940;2022-07-09T01:17:59;13.30;93.30
9271;DHT22;4673;53.458;9.940;2022-07-09T01:20:26;13.30;93.50
9271;DHT22;4673;53.458;9.940;2022-07-09T01:22:55;13.30;93.80
9271;DHT22;4673;53.458;9.940;2022-07-09T01:25:35;13.40;94.00
9271;DHT22;4673;53.458;9.940;2022-07-09T01:28:02;13.30;94.10
9271;DHT22;4673;53.458;9.940;2022-07-09T01:30:28;13.40;94.30
9271;DHT22;4673;53.458;9.940;2022-07-09T01:32:54;13.60;94.30
9271;DHT22;4673;53.458;9.940;2022-07-09T01:35:20;13.60;94.20
9271;DHT22;4673;53.458;9.940;2022-07-09T01:37:46;13.70;94.30
9271;DHT22;4673;53.458;9.940;2022-07-09T01:40:12;13.80;94.00
9271;DHT22;4673;53.458;9.940;2022-07-09T01:42:38;13.80;93.80
9271;DHT22;4673;53.458;9.940;2022-07-09T01:45:05;13.90;93.80
9271;DHT22;4673;53.458;9.940;2022-07-09T01:47:31;13.90;93.80
9271;DHT22;4673;53.458;9.940;2022-07-09T01:49:57;14.00;93.50
9271;DHT22;4673;53.458;9.940;2022-07-09T01:52:23;14.00;93.60
9271;DHT22;4673;53.458;9.940;2022-07-09T01:54:49;14.10;93.60
9271;DHT22;4673;53.458;9.940;2022-07-09T01:57:14;14.20;93.30
9271;DHT22;4673;53.458;9.940;2022-07-09T01:59:40;14.10;92.90
9271;DHT22;4673;53.458;9.940;2022-07-09T02:02:05;14.20;92.90
9271;DHT22;4673;53.458;9.940;2022-07-09T02:04:32;14.20;92.80
9271;DHT22;4673;53.458;9.940;2022-07-09T02:06:57;14.30;92.70
9271;DHT22;4673;53.458;9.940;2022-07-09T02:09:23;14.20;92.60
9271;DHT22;4673;53.458;9.940;2022-07-09T02:11:49;14.30;92.50
9271;DHT22;4673;53.458;9.940;2022-07-09T02:14:15;14.30;92.30
9271;DHT22;4673;53.458;9.940;2022-07-09T02:16:41;14.40;92.20
9271;DHT22;4673;53.458;9.940;2022-07-09T02:19:06;14.40;92.00
9271;DHT22;4673;53.458;9.940;2022-07-09T02:21:33;14.40;92.00
9271;DHT22;4673;53.458;9.940;2022-07-09T02:23:59;14.50;92.00
9271;DHT22;4673;53.458;9.940;2022-07-09T02:26:25;14.50;91.80
9271;DHT22;4673;53.458;9.940;2022-07-09T02:28:51;14.50;91.70
9271;DHT22;4673;53.458;9.940;2022-07-09T02:31:17;14.50;91.80
9271;DHT22;4673;53.458;9.940;2022-07-09T02:33:43;14.50;91.70
9271;DHT22;4673;53.458;9.940;2022-07-09T02:36:09;14.50;91.60
9271;DHT22;4673;53.458;9.940;2022-07-09T02:38:34;14.50;91.60
9271;DHT22;4673;53.458;9.940;2022-07-09T02:41:00;14.60;91.50
9271;DHT22;4673;53.458;9.940;2022-07-09T02:43:27;14.60;91.40
9271;DHT22;4673;53.458;9.940;2022-07-09T02:45:52;14.60;91.30
9271;DHT22;4673;53.458;9.940;2022-07-09T02:48:21;14.50;91.10
9271;DHT22;4673;53.458;9.940;2022-07-09T02:50:46;14.50;91.20
9271;DHT22;4673;53.458;9.940;2022-07-09T02:53:12;14.50;91.20
9271;DHT22;4673;53.458;9.940;2022-07-09T02:55:38;14.60;91.20
9271;DHT22;4673;53.458;9.940;2022-07-09T02:58:03;14.50;91.30
9271;DHT22;4673;53.458;9.940;2022-07-09T03:00:29;14.50;91.10
9271;DHT22;4673;53.458;9.940;2022-07-09T03:02:54;14.50;91.30
9271;DHT22;4673;53.458;9.940;2022-07-09T03:05:20;14.50;91.50
9271;DHT22;4673;53.458;9.940;2022-07-09T03:07:46;14.50;91.50
9271;DHT22;4673;53.458;9.940;2022-07-09T03:10:11;14.40;91.40
9271;DHT22;4673;53.458;9.940;2022-07-09T03:12:37;14.40;91.60
9271;DHT22;4673;53.458;9.940;2022-07-09T03:15:03;14.40;91.90
9271;DHT22;4673;53.458;9.940;2022-07-09T03:17:29;14.40;92.00
9271;DHT22;4673;53.458;9.940;2022-07-09T03:19:55;14.40;92.20
9271;DHT22;4673;53.458;9.940;2022-07-09T03:22:20;14.40;92.20
9271;DHT22;4673;53.458;9.940;2022-07-09T03:24:46;14.50;92.50
9271;DHT22;4673;53.458;9.940;2022-07-09T03:27:11;14.50;92.60
9271;DHT22;4673;53.458;9.940;2022-07-09T03:29:37;14.50;92.60
9271;DHT22;4673;53.458;9.940;2022-07-09T03:32:03;14.60;92.60
9271;DHT22;4673;53.458;9.940;2022-07-09T03:34:29;14.60;92.70
9271;DHT22;4673;53.458;9.940;2022-07-09T03:36:54;14.60;92.70
9271;DHT22;4673;53.458;9.940;2022-07-09T03:39:20;14.60;92.80
9271;DHT22;4673;53.458;9.940;2022-07-09T03:41:46;14.70;93.10
9271;DHT22;4673;53.458;9.940;2022-07-09T03:44:12;14.60;92.90
9271;DHT22;4673;53.458;9.940;2022-07-09T03:46:38;14.70;93.20
9271;DHT22;4673;53.458;9.940;2022-07-09T03:49:03;14.70;93.10
9271;DHT22;4673;53.458;9.940;2022-07-09T03:51:29;14.70;93.00
9271;DHT22;4673;53.458;9.940;2022-07-09T03:53:54;14.70;93.20
9271;DHT22;4673;53.458;9.940;2022-07-09T03:58:58;14.80;93.20
9271;DHT22;4673;53.458;9.940;2022-07-09T04:01:23;14.80;92.90
9271;DHT22;4673;53.458;9.940;2022-07-09T04:03:49;14.80;92.90
9271;DHT22;4673;53.458;9.940;2022-07-09T04:06:14;14.80;92.80
9271;DHT22;4673;53.458;9.940;2022-07-09T04:08:41;14.80;92.90
9271;DHT22;4673;53.458;9.940;2022-07-09T04:11:07;14.80;93.00
9271;DHT22;4673;53.458;9.940;2022-07-09T04:13:32;14.80;93.00
9271;DHT22;4673;53.458;9.940;2022-07-09T04:15:58;14.80;93.00
9271;DHT22;4673;53.458;9.940;2022-07-09T04:18:23;14.80;93.20
9271;DHT22;4673;53.458;9.940;2022-07-09T04:20:49;14.90;93.30
9271;DHT22;4673;53.458;9.940;2022-07-09T04:23:15;15.00;93.00
9271;DHT22;4673;53.458;9.940;2022-07-09T04:25:40;15.00;92.70
9271;DHT22;4673;53.458;9.940;2022-07-09T04:28:06;15.00;92.70
9271;DHT22;4673;53.458;9.940;2022-07-09T04:30:31;15.00;92.70
9271;DHT22;4673;53.458;9.940;2022-07-09T04:32:57;15.10;92.70
9271;DHT22;4673;53.458;9.940;2022-07-09T04:35:23;15.10;92.60
9271;DHT22;4673;53.458;9.940;2022-07-09T04:37:48;15.10;92.40
9271;DHT22;4673;53.458;9.940;2022-07-09T04:40:14;15.20;92.40
9271;DHT22;4673;53.458;9.940;2022-07-09T04:42:40;15.20;92.40
9271;DHT22;4673;53.458;9.940;2022-07-09T04:45:06;15.20;92.40
9271;DHT22;4673;53.458;9.940;2022-07-09T04:47:32;15.20;92.40
9271;DHT22;4673;53.458;9.940;2022-07-09T04:49:57;15.30;92.40
9271;DHT22;4673;53.458;9.940;2022-07-09T04:52:23;15.30;92.30
9271;DHT22;4673;53.458;9.940;2022-07-09T04:54:52;15.30;92.40
9271;DHT22;4673;53.458;9.940;2022-07-09T04:57:18;15.40;92.00
9271;DHT22;4673;53.458;9.940;2022-07-09T04:59:43;15.40;91.90
9271;DHT22;4673;53.458;9.940;2022-07-09T05:02:09;15.40;91.70
9271;DHT22;4673;53.458;9.940;2022-07-09T05:04:34;15.40;91.60
9271;DHT22;4673;53.458;9.940;2022-07-09T05:07:00;15.50;91.70
9271;DHT22;4673;53.458;9.940;2022-07-09T05:09:26;15.50;91.60
9271;DHT22;4673;53.458;9.940;2022-07-09T05:11:51;15.40;91.50
9271;DHT22;4673;53.458;9.940;2022-07-09T05:14:17;15.40;91.90
9271;DHT22;4673;53.458;9.940;2022-07-09T05:16:42;15.40;91.80
9271;DHT22;4673;53.458;9.940;2022-07-09T05:19:13;15.50;91.90
9271;DHT22;4673;53.458;9.940;2022-07-09T05:21:41;15.50;91.90
9271;DHT22;4673;53.458;9.940;2022-07-09T05:24:08;15.50;92.00
9271;DHT22;4673;53.458;9.940;2022-07-09T05:26:34;15.60;92.00
9271;DHT22;4673;53.458;9.940;2022-07-09T05:29:01;15.60;92.00
9271;DHT22;4673;53.458;9.940;2022-07-09T05:31:27;15.60;92.00
9271;DHT22;4673;53.458;9.940;2022-07-09T05:33:52;15.70;92.00
9271;DHT22;4673;53.458;9.940;2022-07-09T05:36:18;15.80;91.80
9271;DHT22;4673;53.458;9.940;2022-07-09T05:38:47;15.90;91.50
9271;DHT22;4673;53.458;9.940;2022-07-09T05:41:13;16.00;91.20
9271;DHT22;4673;53.458;9.940;2022-07-09T05:43:39;16.00;90.90
9271;DHT22;4673;53.458;9.940;2022-07-09T05:46:05;16.00;90.60
9271;DHT22;4673;53.458;9.940;2022-07-09T05:48:31;16.00;90.60
9271;DHT22;4673;53.458;9.940;2022-07-09T05:50:56;16.00;90.50
9271;DHT22;4673;53.458;9.940;2022-07-09T05:53:22;16.10;90.50
9271;DHT22;4673;53.458;9.940;2022-07-09T05:55:48;16.00;90.70
9271;DHT22;4673;53.458;9.940;2022-07-09T05:58:13;16.10;90.80
9271;DHT22;4673;53.458;9.940;2022-07-09T06:00:40;16.20;90.80
9271;DHT22;4673;53.458;9.940;2022-07-09T06:03:05;16.30;90.40
9271;DHT22;4673;53.458;9.940;2022-07-09T06:05:31;16.40;90.20
9271;DHT22;4673;53.458;9.940;2022-07-09T06:07:57;16.40;90.00
9271;DHT22;4673;53.458;9.940;2022-07-09T06:10:22;16.60;89.80
9271;DHT22;4673;53.458;9.940;2022-07-09T06:12:48;16.60;89.40
9271;DHT22;4673;53.458;9.940;2022-07-09T06:15:13;16.60;89.10
9271;DHT22;4673;53.458;9.940;2022-07-09T06:17:39;16.70;89.20
9271;DHT22;4673;53.458;9.940;2022-07-09T06:20:06;16.90;89.20
9271;DHT22;4673;53.458;9.940;2022-07-09T06:22:33;17.10;88.90
9271;DHT22;4673;53.458;9.940;2022-07-09T06:24:58;17.20;87.50
9271;DHT22;4673;53.458;9.940;2022-07-09T06:27:24;17.20;87.60
9271;DHT22;4673;53.458;9.940;2022-07-09T06:29:50;17.40;87.20
9271;DHT22;4673;53.458;9.940;2022-07-09T06:32:16;17.60;86.60
9271;DHT22;4673;53.458;9.940;2022-07-09T06:34:41;17.60;86.10
9271;DHT22;4673;53.458;9.940;2022-07-09T06:37:07;17.80;85.70
9271;DHT22;4673;53.458;9.940;2022-07-09T06:39:33;17.90;85.20
9271;DHT22;4673;53.458;9.940;2022-07-09T06:42:15;17.90;84.70
9271;DHT22;4673;53.458;9.940;2022-07-09T06:44:42;17.90;84.40
9271;DHT22;4673;53.458;9.940;2022-07-09T06:47:07;17.90;84.00
9271;DHT22;4673;53.458;9.940;2022-07-09T06:49:33;17.80;84.00
9271;DHT22;4673;53.458;9.940;2022-07-09T06:51:59;17.80;84.40
9271;DHT22;4673;53.458;9.940;2022-07-09T06:54:25;17.80;84.70
9271;DHT22;4673;53.458;9.940;2022-07-09T06:56:51;17.80;84.40
9271;DHT22;4673;53.458;9.940;2022-07-09T06:59:17;17.90;84.00
9271;DHT22;4673;53.458;9.940;2022-07-09T07:01:44;17.80;83.80
9271;DHT22;4673;53.458;9.940;2022-07-09T07:04:10;17.70;83.70
9271;DHT22;4673;53.458;9.940;2022-07-09T07:06:40;17.70;84.30
9271;DHT22;4673;53.458;9.940;2022-07-09T07:09:06;17.70;84.60
9271;DHT22;4673;53.458;9.940;2022-07-09T07:11:32;18.00;84.80
9271;DHT22;4673;53.458;9.940;2022-07-09T07:13:57;17.90;83.50
9271;DHT22;4673;53.458;9.940;2022-07-09T07:16:23;17.90;82.80
9271;DHT22;4673;53.458;9.940;2022-07-09T07:18:49;17.80;83.20
9271;DHT22;4673;53.458;9.940;2022-07-09T07:21:15;17.90;83.70
9271;DHT22;4673;53.458;9.940;2022-07-09T07:23:40;18.30;83.50
9271;DHT22;4673;53.458;9.940;2022-07-09T07:26:06;18.40;82.30
9271;DHT22;4673;53.458;9.940;2022-07-09T07:28:32;18.70;82.20
9271;DHT22;4673;53.458;9.940;2022-07-09T07:30:57;18.80;80.40
9271;DHT22;4673;53.458;9.940;2022-07-09T07:33:23;19.10;80.30
9271;DHT22;4673;53.458;9.940;2022-07-09T07:35:49;19.20;78.90
9271;DHT22;4673;53.458;9.940;2022-07-09T07:38:14;19.40;78.70
9271;DHT22;4673;53.458;9.940;2022-07-09T07:40:40;19.60;78.30
9271;DHT22;4673;53.458;9.940;2022-07-09T07:43:05;19.80;76.50
9271;DHT22;4673;53.458;9.940;2022-07-09T07:45:31;19.80;75.60
9271;DHT22;4673;53.458;9.940;2022-07-09T07:47:57;19.80;75.40
9271;DHT22;4673;53.458;9.940;2022-07-09T07:50:23;19.80;76.00
9271;DHT22;4673;53.458;9.940;2022-07-09T07:52:49;19.90;75.90
9271;DHT22;4673;53.458;9.940;2022-07-09T07:55:15;20.00;74.90
9271;DHT22;4673;53.458;9.940;2022-07-09T07:57:41;19.90;74.50
9271;DHT22;4673;53.458;9.940;2022-07-09T08:00:07;19.90;75.00
9271;DHT22;4673;53.458;9.940;2022-07-09T08:02:33;19.70;75.10
9271;DHT22;4673;53.458;9.940;2022-07-09T08:05:00;19.70;75.60
9271;DHT22;4673;53.458;9.940;2022-07-09T08:07:25;19.70;76.00
9271;DHT22;4673;53.458;9.940;2022-07-09T08:09:51;19.80;76.10
9271;DHT22;4673;53.458;9.940;2022-07-09T08:12:17;20.00;75.10
9271;DHT22;4673;53.458;9.940;2022-07-09T08:14:42;20.10;75.00
9271;DHT22;4673;53.458;9.940;2022-07-09T08:17:08;20.00;74.90
9271;DHT22;4673;53.458;9.940;2022-07-09T08:19:33;20.00;74.00
9271;DHT22;4673;53.458;9.940;2022-07-09T08:21:59;20.00;74.50
9271;DHT22;4673;53.458;9.940;2022-07-09T08:24:25;20.10;75.60
9271;DHT22;4673;53.458;9.940;2022-07-09T08:26:52;20.60;74.60
9271;DHT22;4673;53.458;9.940;2022-07-09T08:29:17;21.00;73.10
9271;DHT22;4673;53.458;9.940;2022-07-09T08:31:43;21.20;71.30
9271;DHT22;4673;53.458;9.940;2022-07-09T08:34:09;21.40;69.70
9271;DHT22;4673;53.458;9.940;2022-07-09T08:36:34;21.10;69.20
9271;DHT22;4673;53.458;9.940;2022-07-09T08:39:00;21.00;70.10
9271;DHT22;4673;53.458;9.940;2022-07-09T08:41:25;21.00;69.30
9271;DHT22;4673;53.458;9.940;2022-07-09T08:43:52;20.90;68.90
9271;DHT22;4673;53.458;9.940;2022-07-09T08:46:18;20.60;71.10
9271;DHT22;4673;53.458;9.940;2022-07-09T08:48:44;20.70;71.80
9271;DHT22;4673;53.458;9.940;2022-07-09T08:51:11;21.00;70.90
9271;DHT22;4673;53.458;9.940;2022-07-09T08:53:40;21.10;70.00
9271;DHT22;4673;53.458;9.940;2022-07-09T08:56:07;21.30;69.30
9271;DHT22;4673;53.458;9.940;2022-07-09T08:58:32;21.40;67.30
9271;DHT22;4673;53.458;9.940;2022-07-09T09:00:58;21.10;67.10
9271;DHT22;4673;53.458;9.940;2022-07-09T09:03:24;21.30;68.20
9271;DHT22;4673;53.458;9.940;2022-07-09T09:06:21;21.60;67.50
9271;DHT22;4673;53.458;9.940;2022-07-09T09:08:46;21.90;66.60
9271;DHT22;4673;53.458;9.940;2022-07-09T09:11:19;22.00;65.90
9271;DHT22;4673;53.458;9.940;2022-07-09T09:13:47;21.90;65.70
9271;DHT22;4673;53.458;9.940;2022-07-09T09:16:15;21.70;66.40
9271;DHT22;4673;53.458;9.940;2022-07-09T09:18:52;21.50;66.50
9271;DHT22;4673;53.458;9.940;2022-07-09T09:21:25;21.40;65.30
9271;DHT22;4673;53.458;9.940;2022-07-09T09:23:56;21.20;66.40
9271;DHT22;4673;53.458;9.940;2022-07-09T09:26:27;21.10;65.80
9271;DHT22;4673;53.458;9.940;2022-07-09T09:28:54;21.20;66.50
9271;DHT22;4673;53.458;9.940;2022-07-09T09:31:26;21.20;66.70
9271;DHT22;4673;53.458;9.940;2022-07-09T09:33:57;21.20;66.40
9271;DHT22;4673;53.458;9.940;2022-07-09T09:36:35;21.40;67.10
9271;DHT22;4673;53.458;9.940;2022-07-09T09:41:49;21.40;65.80
9271;DHT22;4673;53.458;9.940;2022-07-09T09:46:45;20.90;65.00
9271;DHT22;4673;53.458;9.940;2022-07-09T09:49:14;20.60;66.80
9271;DHT22;4673;53.458;9.940;2022-07-09T09:54:24;20.70;68.20
9271;DHT22;4673;53.458;9.940;2022-07-09T09:56:50;20.80;67.80
9271;DHT22;4673;53.458;9.940;2022-07-09T09:59:28;20.90;67.20
9271;DHT22;4673;53.458;9.940;2022-07-09T10:01:54;20.90;66.60
9271;DHT22;4673;53.458;9.940;2022-07-09T10:04:19;20.90;67.30
9271;DHT22;4673;53.458;9.940;2022-07-09T10:06:46;20.60;66.70
9271;DHT22;4673;53.458;9.940;2022-07-09T10:09:14;20.50;67.40
9271;DHT22;4673;53.458;9.940;2022-07-09T10:11:47;20.40;67.50
9271;DHT22;4673;53.458;9.940;2022-07-09T10:14:17;20.30;67.90
9271;DHT22;4673;53.458;9.940;2022-07-09T10:16:43;20.50;68.50
9271;DHT22;4673;53.458;9.940;2022-07-09T10:19:09;20.60;68.60
9271;DHT22;4673;53.458;9.940;2022-07-09T10:21:52;20.60;67.00
9271;DHT22;4673;53.458;9.940;2022-07-09T10:24:27;21.10;66.60
9271;DHT22;4673;53.458;9.940;2022-07-09T10:27:01;21.50;66.10
9271;DHT22;4673;53.458;9.940;2022-07-09T10:29:28;21.80;63.30
9271;DHT22;4673;53.458;9.940;2022-07-09T10:31:55;21.90;61.70
9271;DHT22;4673;53.458;9.940;2022-07-09T10:37:10;21.40;59.70
9271;DHT22;4673;53.458;9.940;2022-07-09T10:39:36;21.20;61.80
9271;DHT22;4673;53.458;9.940;2022-07-09T10:42:18;21.10;62.60
9271;DHT22;4673;53.458;9.940;2022-07-09T10:44:45;20.90;63.10
9271;DHT22;4673;53.458;9.940;2022-07-09T10:47:11;20.80;64.70
9271;DHT22;4673;53.458;9.940;2022-07-09T10:49:38;20.70;64.50
9271;DHT22;4673;53.458;9.940;2022-07-09T10:52:05;20.60;64.70
9271;DHT22;4673;53.458;9.940;2022-07-09T10:54:31;21.00;64.00
9271;DHT22;4673;53.458;9.940;2022-07-09T10:56:57;21.10;62.50
9271;DHT22;4673;53.458;9.940;2022-07-09T10:59:24;21.10;59.50
9271;DHT22;4673;53.458;9.940;2022-07-09T11:01:50;21.00;60.20
9271;DHT22;4673;53.458;9.940;2022-07-09T11:04:25;21.00;61.00
9271;DHT22;4673;53.458;9.940;2022-07-09T11:06:50;20.60;61.90
9271;DHT22;4673;53.458;9.940;2022-07-09T11:09:16;20.40;63.90
9271;DHT22;4673;53.458;9.940;2022-07-09T11:11:43;20.10;68.60
9271;DHT22;4673;53.458;9.940;2022-07-09T11:14:10;19.90;70.60
9271;DHT22;4673;53.458;9.940;2022-07-09T11:16:35;19.70;71.90
9271;DHT22;4673;53.458;9.940;2022-07-09T11:19:14;19.70;72.00
9271;DHT22;4673;53.458;9.940;2022-07-09T11:21:40;19.70;73.70
9271;DHT22;4673;53.458;9.940;2022-07-09T11:24:19;19.90;72.60
9271;DHT22;4673;53.458;9.940;2022-07-09T11:26:46;19.90;71.80
9271;DHT22;4673;53.458;9.940;2022-07-09T11:29:16;20.00;70.80
9271;DHT22;4673;53.458;9.940;2022-07-09T11:31:51;20.00;70.10
9271;DHT22;4673;53.458;9.940;2022-07-09T11:34:18;20.00;68.80
9271;DHT22;4673;53.458;9.940;2022-07-09T11:36:45;19.80;69.30
9271;DHT22;4673;53.458;9.940;2022-07-09T11:39:22;19.50;69.60
9271;DHT22;4673;53.458;9.940;2022-07-09T11:41:48;19.40;70.40
9271;DHT22;4673;53.458;9.940;2022-07-09T11:44:28;19.40;70.70
9271;DHT22;4673;53.458;9.940;2022-07-09T11:49:43;19.80;71.80
9271;DHT22;4673;53.458;9.940;2022-07-09T11:52:25;20.00;70.30
9271;DHT22;4673;53.458;9.940;2022-07-09T11:54:58;20.30;70.70
9271;DHT22;4673;53.458;9.940;2022-07-09T11:57:24;20.40;69.60
9271;DHT22;4673;53.458;9.940;2022-07-09T11:59:50;20.90;69.70
9271;DHT22;4673;53.458;9.940;2022-07-09T12:02:23;20.80;66.30
9271;DHT22;4673;53.458;9.940;2022-07-09T12:04:49;20.50;68.60
9271;DHT22;4673;53.458;9.940;2022-07-09T12:07:15;20.30;69.30
9271;DHT22;4673;53.458;9.940;2022-07-09T12:09:40;20.00;69.10
9271;DHT22;4673;53.458;9.940;2022-07-09T12:12:06;19.80;67.60
9271;DHT22;4673;53.458;9.940;2022-07-09T12:14:32;19.90;67.90
9271;DHT22;4673;53.458;9.940;2022-07-09T12:16:58;20.20;67.40
9271;DHT22;4673;53.458;9.940;2022-07-09T12:19:24;20.30;64.80
9271;DHT22;4673;53.458;9.940;2022-07-09T12:21:49;20.20;64.00
9271;DHT22;4673;53.458;9.940;2022-07-09T12:24:15;20.30;64.80
9271;DHT22;4673;53.458;9.940;2022-07-09T12:26:41;20.50;63.40
9271;DHT22;4673;53.458;9.940;2022-07-09T12:29:06;20.50;63.30
9271;DHT22;4673;53.458;9.940;2022-07-09T12:31:32;20.60;63.10
9271;DHT22;4673;53.458;9.940;2022-07-09T12:33:58;20.90;63.30
9271;DHT22;4673;53.458;9.940;2022-07-09T12:36:23;21.00;62.60
9271;DHT22;4673;53.458;9.940;2022-07-09T12:38:49;21.10;61.00
9271;DHT22;4673;53.458;9.940;2022-07-09T12:41:15;21.00;61.10
9271;DHT22;4673;53.458;9.940;2022-07-09T12:43:40;21.00;61.50
9271;DHT22;4673;53.458;9.940;2022-07-09T12:46:06;20.90;60.90
9271;DHT22;4673;53.458;9.940;2022-07-09T12:48:32;20.90;60.10
9271;DHT22;4673;53.458;9.940;2022-07-09T12:50:58;20.80;59.00
9271;DHT22;4673;53.458;9.940;2022-07-09T12:53:23;20.70;60.90
9271;DHT22;4673;53.458;9.940;2022-07-09T12:55:49;20.70;60.10
9271;DHT22;4673;53.458;9.940;2022-07-09T12:58:16;20.60;59.40
9271;DHT22;4673;53.458;9.940;2022-07-09T13:00:41;20.40;59.30
9271;DHT22;4673;53.458;9.940;2022-07-09T13:03:07;20.50;59.50
9271;DHT22;4673;53.458;9.940;2022-07-09T13:05:33;20.40;58.40
9271;DHT22;4673;53.458;9.940;2022-07-09T13:07:58;20.40;59.30
9271;DHT22;4673;53.458;9.940;2022-07-09T13:10:24;20.50;59.60
9271;DHT22;4673;53.458;9.940;2022-07-09T13:12:50;20.70;57.40
9271;DHT22;4673;53.458;9.940;2022-07-09T13:15:16;20.40;56.10
9271;DHT22;4673;53.458;9.940;2022-07-09T13:17:49;20.40;55.20
9271;DHT22;4673;53.458;9.940;2022-07-09T13:20:15;20.20;55.80
9271;DHT22;4673;53.458;9.940;2022-07-09T13:22:42;20.20;56.00
9271;DHT22;4673;53.458;9.940;2022-07-09T13:25:07;20.50;54.70
9271;DHT22;4673;53.458;9.940;2022-07-09T13:27:33;20.60;52.60
9271;DHT22;4673;53.458;9.940;2022-07-09T13:29:59;20.50;51.00
9271;DHT22;4673;53.458;9.940;2022-07-09T13:32:25;20.30;51.20
9271;DHT22;4673;53.458;9.940;2022-07-09T13:34:52;20.30;52.70
9271;DHT22;4673;53.458;9.940;2022-07-09T13:37:19;20.10;52.20
9271;DHT22;4673;53.458;9.940;2022-07-09T13:39:45;19.90;53.40
9271;DHT22;4673;53.458;9.940;2022-07-09T13:42:10;19.60;55.20
9271;DHT22;4673;53.458;9.940;2022-07-09T13:44:36;19.40;55.40
9271;DHT22;4673;53.458;9.940;2022-07-09T13:47:02;19.30;54.60
9271;DHT22;4673;53.458;9.940;2022-07-09T13:49:27;19.10;55.00
9271;DHT22;4673;53.458;9.940;2022-07-09T13:51:54;19.30;54.90
9271;DHT22;4673;53.458;9.940;2022-07-09T13:54:19;19.50;54.90
9271;DHT22;4673;53.458;9.940;2022-07-09T13:56:46;19.60;54.10
9271;DHT22;4673;53.458;9.940;2022-07-09T13:59:11;19.20;55.30
9271;DHT22;4673;53.458;9.940;2022-07-09T14:01:37;19.10;55.20
9271;DHT22;4673;53.458;9.940;2022-07-09T14:04:03;18.90;56.50
9271;DHT22;4673;53.458;9.940;2022-07-09T14:06:29;19.10;57.50
9271;DHT22;4673;53.458;9.940;2022-07-09T14:08:55;19.60;55.40
9271;DHT22;4673;53.458;9.940;2022-07-09T14:11:21;19.90;54.00
9271;DHT22;4673;53.458;9.940;2022-07-09T14:13:47;20.00;51.40
9271;DHT22;4673;53.458;9.940;2022-07-09T14:16:14;20.00;51.80
9271;DHT22;4673;53.458;9.940;2022-07-09T14:18:40;20.00;51.60
9271;DHT22;4673;53.458;9.940;2022-07-09T14:21:06;19.90;52.90
9271;DHT22;4673;53.458;9.940;2022-07-09T14:23:31;19.90;53.20
9271;DHT22;4673;53.458;9.940;2022-07-09T14:25:57;19.80;54.30
9271;DHT22;4673;53.458;9.940;2022-07-09T14:28:23;19.70;54.10
9271;DHT22;4673;53.458;9.940;2022-07-09T14:30:48;19.30;52.30
9271;DHT22;4673;53.458;9.940;2022-07-09T14:33:14;19.00;53.90
9271;DHT22;4673;53.458;9.940;2022-07-09T14:35:40;18.80;55.60
9271;DHT22;4673;53.458;9.940;2022-07-09T14:38:06;19.00;55.10
9271;DHT22;4673;53.458;9.940;2022-07-09T14:40:31;19.10;55.10
9271;DHT22;4673;53.458;9.940;2022-07-09T14:42:57;19.30;55.60
9271;DHT22;4673;53.458;9.940;2022-07-09T14:45:23;19.30;54.40
9271;DHT22;4673;53.458;9.940;2022-07-09T14:47:52;19.40;54.40
9271;DHT22;4673;53.458;9.940;2022-07-09T14:50:18;19.40;54.60
9271;DHT22;4673;53.458;9.940;2022-07-09T14:52:44;19.30;54.20
9271;DHT22;4673;53.458;9.940;2022-07-09T14:55:11;19.10;54.20
9271;DHT22;4673;53.458;9.940;2022-07-09T14:57:37;18.70;55.40
9271;DHT22;4673;53.458;9.940;2022-07-09T15:00:04;18.70;56.10
9271;DHT22;4673;53.458;9.940;2022-07-09T15:02:29;18.80;56.30
9271;DHT22;4673;53.458;9.940;2022-07-09T15:04:55;18.90;54.30
9271;DHT22;4673;53.458;9.940;2022-07-09T15:07:22;18.90;52.40
9271;DHT22;4673;53.458;9.940;2022-07-09T15:09:48;19.00;53.00
9271;DHT22;4673;53.458;9.940;2022-07-09T15:12:13;19.30;53.10
9271;DHT22;4673;53.458;9.940;2022-07-09T15:14:39;19.70;50.10
9271;DHT22;4673;53.458;9.940;2022-07-09T15:17:05;19.80;48.20
9271;DHT22;4673;53.458;9.940;2022-07-09T15:19:30;19.80;47.60
9271;DHT22;4673;53.458;9.940;2022-07-09T15:21:56;19.80;48.40
9271;DHT22;4673;53.458;9.940;2022-07-09T15:24:22;19.90;48.10
9271;DHT22;4673;53.458;9.940;2022-07-09T15:26:47;19.60;49.00
9271;DHT22;4673;53.458;9.940;2022-07-09T15:29:14;19.50;49.40
9271;DHT22;4673;53.458;9.940;2022-07-09T15:31:40;19.40;49.10
9271;DHT22;4673;53.458;9.940;2022-07-09T15:34:05;19.30;48.30
9271;DHT22;4673;53.458;9.940;2022-07-09T15:36:31;19.20;45.60
9271;DHT22;4673;53.458;9.940;2022-07-09T15:38:58;19.00;47.30
9271;DHT22;4673;53.458;9.940;2022-07-09T15:41:24;18.80;48.00
9271;DHT22;4673;53.458;9.940;2022-07-09T15:43:50;19.00;48.00
9271;DHT22;4673;53.458;9.940;2022-07-09T15:46:16;18.80;46.60
9271;DHT22;4673;53.458;9.940;2022-07-09T15:48:42;18.60;46.10
9271;DHT22;4673;53.458;9.940;2022-07-09T15:51:07;18.60;47.40
9271;DHT22;4673;53.458;9.940;2022-07-09T15:53:33;18.70;47.30
9271;DHT22;4673;53.458;9.940;2022-07-09T15:55:59;19.00;46.70
9271;DHT22;4673;53.458;9.940;2022-07-09T15:58:25;18.90;46.10
9271;DHT22;4673;53.458;9.940;2022-07-09T16:00:56;18.80;47.00
9271;DHT22;4673;53.458;9.940;2022-07-09T16:03:25;18.70;49.00
9271;DHT22;4673;53.458;9.940;2022-07-09T16:06:09;18.60;51.30
9271;DHT22;4673;53.458;9.940;2022-07-09T16:08:36;18.40;53.30
9271;DHT22;4673;53.458;9.940;2022-07-09T16:11:01;18.10;54.70
9271;DHT22;4673;53.458;9.940;2022-07-09T16:13:54;18.10;56.00